KSUA/SUA METAR and TAF weather

Enter ICAO airport designator
Station Type Date Time Source
KSUA METAR 2019/12/09 12:50 UTC NOAA

KSUA 091250Z 00000KT 7SM SCT025 18/16 A3015


Station Type Date Time Source
KSUA Decoded METAR 2019/12/09 12:50 UTC NOAA

Stuart, Witham Field Airport, FL, United States (KSUA) 27-10-54N 080-13-16W
Dec 09, 2019 - 07:50 AM EST / 2019.12.09 1250 UTC
Wind: Calm:0
Visibility: 7 mile(s):0
Sky conditions: partly cloudy
Temperature: 64 F (18 C)
Dew Point: 60 F (16 C)
Relative Humidity: 88%
Pressure (altimeter): 30.15 in. Hg (1020 hPa)
ob: KSUA 091250Z 00000KT 7SM SCT025 18/16 A3015
cycle: 13

Station Type Date Time Source
KSUA TAF 2019/12/09 12:39 UTC NOAA

TAF KSUA 091137Z 0912/1012 11005KT P6SM FEW030
FM091500 13011KT P6SM FEW030 SCT250
FM092300 14005KT P6SM FEW040 SCT250

Example: see airport list